Time;durP1;ratioP1;P1;durP2;ratioP2;P2;SDS_P1;SDS_P2;PMS_P1;PMS_P2;Temp;Humidity;BMP_temperature;BMP_pressure;BME280_temperature;BME280_humidity;BME280_pressure;Samples;Min_cycle;Max_cycle;Signal;HPM_P1;HPM_P2
2022/07/29 00:02:09;;;;;;;;;;;;;;;17.66;69.18;99739.44;4932868;29;20406;-65
2022/07/29 00:04:35;;;;;;;;;;;;;;;17.44;69.40;99707.22;4931330;29;19931;-65
2022/07/29 00:07:01;;;;;;;;;;;;;;;17.67;69.13;99732.78;4932662;29;20037;-64
2022/07/29 00:09:27;;;;;;;;;;;;;;;17.71;69.04;99739.28;4930709;29;20042;-66
2022/07/29 00:11:56;;;;;;;;;;;;;;;17.72;69.13;99740.09;4932877;29;19974;-65
2022/07/29 00:14:22;;;;;;;;;;;;;;;17.67;69.40;99738.31;4932488;29;19931;-65
2022/07/29 00:16:48;;;;;;;;;;;;;;;17.59;69.73;99736.31;4931049;29;19935;-65
2022/07/29 00:19:13;;;;;;;;;;;;;;;17.48;69.86;99740.53;4932862;29;19994;-64
2022/07/29 00:21:39;;;;;;;;;;;;;;;17.34;70.25;99735.16;4930165;29;19938;-65
2022/07/29 00:24:05;;;;;;;;;;;;;;;17.12;70.32;99723.09;4929194;29;19930;-65
2022/07/29 00:26:32;;;;;;;;;;;;;;;17.17;70.71;99741.44;4930880;29;19977;-67
2022/07/29 00:28:59;;;;;;;;;;;;;;;17.05;70.88;99748.41;4930851;29;20037;-67
2022/07/29 00:31:25;;;;;;;;;;;;;;;16.99;71.45;99753.28;4927946;29;19931;-67
2022/07/29 00:33:51;;;;;;;;;;;;;;;16.91;70.99;99751.25;4929857;29;19937;-65
2022/07/29 00:36:17;;;;;;;;;;;;;;;16.87;70.60;99753.84;4931610;29;19930;-66
2022/07/29 00:38:45;;;;;;;;;;;;;;;16.83;69.86;99750.06;4931223;29;19966;-66
2022/07/29 00:41:10;;;;;;;;;;;;;;;16.74;69.63;99754.75;4930540;29;20413;-65
2022/07/29 00:43:36;;;;;;;;;;;;;;;16.63;69.59;99751.47;4913467;29;19935;-68
2022/07/29 00:46:03;;;;;;;;;;;;;;;16.53;69.75;99762.75;4931371;29;19930;-67
2022/07/29 00:48:29;;;;;;;;;;;;;;;16.45;69.66;99764.34;4931331;29;19935;-67
2022/07/29 00:50:55;;;;;;;;;;;;;;;16.37;69.46;99776.13;4930915;29;19978;-67
2022/07/29 00:53:21;;;;;;;;;;;;;;;16.29;69.62;99769.41;4931363;28;19977;-65
2022/07/29 00:55:47;;;;;;;;;;;;;;;16.23;69.53;99779.75;4947260;29;19966;-65
2022/07/29 00:58:13;;;;;;;;;;;;;;;16.21;69.42;99776.50;4932325;29;19931;-64
2022/07/29 01:00:40;;;;;;;;;;;;;;;16.19;69.60;99778.75;4929161;29;20386;-64
2022/07/29 01:03:08;;;;;;;;;;;;;;;16.15;69.88;99780.53;4912230;29;19930;-66
2022/07/29 01:05:34;;;;;;;;;;;;;;;16.12;69.62;99784.72;4927350;29;19938;-64
2022/07/29 01:08:01;;;;;;;;;;;;;;;16.10;69.10;99794.44;4913007;29;19935;-69
2022/07/29 01:10:27;;;;;;;;;;;;;;;16.05;68.95;99794.53;4927890;29;19931;-65
2022/07/29 01:12:54;;;;;;;;;;;;;;;16.01;69.28;99783.34;4926423;29;19978;-65
2022/07/29 01:15:20;;;;;;;;;;;;;;;16.02;69.34;99784.97;4930261;29;19930;-64
2022/07/29 01:17:49;;;;;;;;;;;;;;;16.03;69.12;99794.88;4928405;29;20021;-64
2022/07/29 01:20:22;;;;;;;;;;;;;;;15.98;69.46;99794.97;4927984;29;19930;-65
2022/07/29 01:22:59;;;;;;;;;;;;;;;15.96;69.68;99797.22;4928470;29;19986;-65
2022/07/29 01:25:40;;;;;;;;;;;;;;;15.95;69.96;99798.34;4931131;29;19931;-64
2022/07/29 01:28:17;;;;;;;;;;;;;;;15.82;70.26;99784.28;4927848;29;19930;-65
2022/07/29 01:30:46;;;;;;;;;;;;;;;15.90;70.51;99796.53;4929035;29;19931;-64
2022/07/29 01:33:48;;;;;;;;;;;;;;;15.85;70.52;99804.91;4930822;29;19931;-65
2022/07/29 01:36:01;;;;;;;;;;;;;;;15.81;70.64;99803.91;4932253;29;19938;-65
2022/07/29 01:38:28;;;;;;;;;;;;;;;15.75;71.22;99800.44;4930778;29;19934;-64
2022/07/29 01:40:57;;;;;;;;;;;;;;;15.69;71.34;99793.41;4929176;29;19930;-64
2022/07/29 01:43:27;;;;;;;;;;;;;;;15.64;71.01;99797.09;4928753;29;19932;-64
2022/07/29 01:45:57;;;;;;;;;;;;;;;15.65;71.01;99798.72;4932143;29;20402;-64
2022/07/29 01:48:27;;;;;;;;;;;;;;;15.62;71.28;99802.09;4944726;29;19940;-65
2022/07/29 01:50:57;;;;;;;;;;;;;;;15.64;71.11;99802.59;4929879;29;19934;-65
2022/07/29 01:53:25;;;;;;;;;;;;;;;15.65;71.49;99798.72;4930888;29;20030;-64
2022/07/29 01:55:51;;;;;;;;;;;;;;;15.65;71.61;99786.88;4936648;29;20029;-65
2022/07/29 01:58:18;;;;;;;;;;;;;;;15.63;71.69;99789.94;4932151;29;19966;-64
2022/07/29 02:00:44;;;;;;;;;;;;;;;15.56;71.77;99793.13;4936314;29;19949;-64
2022/07/29 02:03:12;;;;;;;;;;;;;;;15.54;72.03;99797.31;4932753;29;20393;-66
2022/07/29 02:05:40;;;;;;;;;;;;;;;15.51;71.89;99795.97;4933150;29;19978;-66
2022/07/29 02:08:07;;;;;;;;;;;;;;;15.55;71.73;99802.53;4934248;29;20034;-65
2022/07/29 02:10:33;;;;;;;;;;;;;;;15.54;71.90;99800.06;4935463;29;19930;-66
2022/07/29 02:13:00;;;;;;;;;;;;;;;15.56;71.80;99801.38;4929867;29;19937;-65
2022/07/29 02:15:28;;;;;;;;;;;;;;;15.61;71.93;99800.47;4934492;29;19962;-65
2022/07/29 02:17:56;;;;;;;;;;;;;;;15.61;71.95;99800.47;4934538;29;19930;-67
2022/07/29 02:20:25;;;;;;;;;;;;;;;15.65;71.77;99803.41;4932286;29;19934;-66
2022/07/29 02:22:51;;;;;;;;;;;;;;;15.66;71.90;99808.63;4932323;29;19931;-65
2022/07/29 02:25:18;;;;;;;;;;;;;;;15.68;72.14;99809.13;4916939;29;19934;-64
2022/07/29 02:27:44;;;;;;;;;;;;;;;15.72;71.88;99812.88;4928340;29;20426;-65
2022/07/29 02:30:12;;;;;;;;;;;;;;;15.73;71.82;99817.28;4931035;29;19999;-65
2022/07/29 02:32:39;;;;;;;;;;;;;;;15.80;71.46;99813.28;4913198;29;19973;-66
2022/07/29 02:35:06;;;;;;;;;;;;;;;15.81;71.50;99820.44;4915823;29;20470;-65
2022/07/29 02:37:35;;;;;;;;;;;;;;;15.83;71.13;99826.44;4920606;29;20009;-64
2022/07/29 02:40:01;;;;;;;;;;;;;;;15.85;71.12;99819.50;4930771;29;19934;-64
2022/07/29 02:42:30;;;;;;;;;;;;;;;15.83;71.18;99821.72;4930913;29;19931;-64
2022/07/29 02:44:56;;;;;;;;;;;;;;;15.84;71.16;99822.56;4932027;29;19931;-66
2022/07/29 02:47:23;;;;;;;;;;;;;;;15.82;71.35;99816.56;4929768;29;19982;-63
2022/07/29 02:49:53;;;;;;;;;;;;;;;15.89;71.07;99819.72;4913281;29;20035;-65
2022/07/29 02:52:21;;;;;;;;;;;;;;;15.90;71.01;99817.78;4911767;29;19942;-65
2022/07/29 02:54:51;;;;;;;;;;;;;;;15.96;70.78;99825.63;4911142;29;19941;-64
2022/07/29 02:57:20;;;;;;;;;;;;;;;15.96;70.50;99822.88;4911751;29;19982;-65
2022/07/29 02:59:48;;;;;;;;;;;;;;;16.00;70.52;99821.13;4928003;29;20399;-64
2022/07/29 03:02:15;;;;;;;;;;;;;;;16.07;70.29;99817.09;4930539;29;20035;-66
2022/07/29 03:04:42;;;;;;;;;;;;;;;16.11;70.26;99821.69;4931082;29;20351;-66
2022/07/29 03:07:09;;;;;;;;;;;;;;;16.18;70.32;99823.22;4931060;29;19937;-67
2022/07/29 03:09:35;;;;;;;;;;;;;;;16.21;70.36;99825.34;4915060;29;19953;-69
2022/07/29 03:12:03;;;;;;;;;;;;;;;16.27;70.16;99826.84;4932752;28;20179;-67
2022/07/29 03:14:30;;;;;;;;;;;;;;;16.29;70.51;99817.16;4933707;29;19937;-66
2022/07/29 03:16:56;;;;;;;;;;;;;;;16.33;70.75;99824.78;4931298;29;20402;-66
2022/07/29 03:19:22;;;;;;;;;;;;;;;16.35;70.20;99826.13;4932311;29;19931;-67
2022/07/29 03:21:47;;;;;;;;;;;;;;;16.36;70.56;99816.72;4933354;29;19930;-67
2022/07/29 03:24:24;;;;;;;;;;;;;;;16.39;69.57;99821.59;4932673;29;20399;-67
2022/07/29 03:26:49;;;;;;;;;;;;;;;16.44;69.13;99821.47;4931278;29;20305;-66
2022/07/29 03:29:17;;;;;;;;;;;;;;;16.49;68.92;99825.25;4929647;29;19935;-68
2022/07/29 03:31:42;;;;;;;;;;;;;;;16.56;68.63;99828.34;4930703;29;19934;-67
2022/07/29 03:34:08;;;;;;;;;;;;;;;16.63;68.46;99826.00;4930097;29;20362;-65
2022/07/29 03:36:34;;;;;;;;;;;;;;;16.70;68.22;99820.00;4933387;29;20023;-66
2022/07/29 03:39:00;;;;;;;;;;;;;;;16.73;67.91;99822.16;4932391;29;20139;-64
2022/07/29 03:41:26;;;;;;;;;;;;;;;16.72;67.96;99818.56;4933006;29;20300;-67
2022/07/29 03:43:53;;;;;;;;;;;;;;;16.75;67.80;99828.16;4931037;29;19931;-67
2022/07/29 03:46:22;;;;;;;;;;;;;;;16.78;67.80;99821.16;4931370;29;19931;-66
2022/07/29 03:48:48;;;;;;;;;;;;;;;16.74;67.75;99821.00;4932261;29;19931;-66
2022/07/29 03:51:14;;;;;;;;;;;;;;;16.77;67.76;99828.66;4944413;28;19930;-68
2022/07/29 03:53:40;;;;;;;;;;;;;;;16.83;67.43;99832.91;4931838;29;19931;-67
2022/07/29 03:56:07;;;;;;;;;;;;;;;16.90;67.40;99831.66;4933115;29;20354;-66
2022/07/29 03:58:33;;;;;;;;;;;;;;;16.94;66.81;99827.13;4932477;29;20037;-67
2022/07/29 04:00:59;;;;;;;;;;;;;;;16.92;66.56;99838.47;4932595;29;19930;-65
2022/07/29 04:03:26;;;;;;;;;;;;;;;17.01;66.46;99838.53;4927440;29;20346;-65
2022/07/29 04:05:58;;;;;;;;;;;;;;;17.13;66.33;99833.25;4913595;29;20424;-65
2022/07/29 04:08:24;;;;;;;;;;;;;;;17.23;66.14;99834.91;4912613;29;19931;-66
2022/07/29 04:10:51;;;;;;;;;;;;;;;17.31;65.95;99838.03;4911338;29;19935;-66
2022/07/29 04:13:17;;;;;;;;;;;;;;;17.37;65.56;99829.28;4931622;29;19934;-66
2022/07/29 04:15:43;;;;;;;;;;;;;;;17.42;64.69;99831.91;4931138;29;20328;-65
2022/07/29 04:18:09;;;;;;;;;;;;;;;17.46;64.24;99836.78;4929812;29;20459;-67
2022/07/29 04:20:36;;;;;;;;;;;;;;;17.49;64.39;99839.72;4929071;29;19931;-66
2022/07/29 04:23:02;;;;;;;;;;;;;;;17.31;64.11;99807.66;4930530;29;19938;-66
2022/07/29 04:25:28;;;;;;;;;;;;;;;17.55;63.76;99832.91;4911495;29;20365;-67
2022/07/29 04:28:00;;;;;;;;;;;;;;;17.61;63.39;99843.81;4928468;29;19962;-67
2022/07/29 04:30:25;;;;;;;;;;;;;;;17.68;62.83;99842.22;4929819;29;19937;-67
2022/07/29 04:32:51;;;;;;;;;;;;;;;17.74;62.70;99845.66;4932422;29;20392;-66
2022/07/29 04:35:17;;;;;;;;;;;;;;;17.78;62.44;99843.03;4930887;29;19939;-70
2022/07/29 04:37:44;;;;;;;;;;;;;;;17.86;62.49;99837.50;4928280;29;20030;-68
2022/07/29 04:40:11;;;;;;;;;;;;;;;17.92;62.12;99840.94;4912831;29;19930;-68
2022/07/29 04:42:37;;;;;;;;;;;;;;;17.98;62.01;99842.44;4929514;29;19938;-67
2022/07/29 04:45:03;;;;;;;;;;;;;;;18.02;61.63;99841.78;4929730;29;19930;-66
2022/07/29 04:47:29;;;;;;;;;;;;;;;18.05;61.52;99843.91;4914941;29;19966;-66
2022/07/29 04:49:56;;;;;;;;;;;;;;;18.04;61.23;99850.59;4930111;29;19977;-66
2022/07/29 04:52:21;;;;;;;;;;;;;;;18.02;60.88;99850.06;4930285;29;19966;-67
2022/07/29 04:54:49;;;;;;;;;;;;;;;17.99;60.51;99849.59;4927974;29;20371;-68
2022/07/29 04:57:15;;;;;;;;;;;;;;;17.95;59.88;99845.84;4927128;29;20021;-67
2022/07/29 04:59:40;;;;;;;;;;;;;;;17.92;59.89;99843.72;4929745;29;20474;-67
2022/07/29 05:02:06;;;;;;;;;;;;;;;18.05;59.86;99846.69;4931440;29;19969;-67
2022/07/29 05:04:32;;;;;;;;;;;;;;;18.17;59.27;99855.16;4929945;29;19938;-67
2022/07/29 05:06:58;;;;;;;;;;;;;;;18.18;60.55;99848.47;4929641;28;19966;-71
2022/07/29 05:09:24;;;;;;;;;;;;;;;18.23;61.80;99853.06;4911093;29;19931;-66
2022/07/29 05:11:51;;;;;;;;;;;;;;;18.24;62.58;99849.94;4930328;29;19930;-66
2022/07/29 05:14:16;;;;;;;;;;;;;;;18.21;62.07;99847.03;4946397;28;19930;-66
2022/07/29 05:16:43;;;;;;;;;;;;;;;18.15;62.36;99854.69;4928972;29;19938;-67
2022/07/29 05:19:08;;;;;;;;;;;;;;;18.12;61.80;99847.03;4930781;29;19930;-67
2022/07/29 05:21:34;;;;;;;;;;;;;;;18.21;60.94;99852.56;4928231;29;19931;-67
2022/07/29 05:24:00;;;;;;;;;;;;;;;18.26;59.15;99850.47;4930475;29;19953;-65
2022/07/29 05:26:26;;;;;;;;;;;;;;;18.30;57.91;99850.59;4928686;29;19962;-67
2022/07/29 05:28:54;;;;;;;;;;;;;;;18.39;58.13;99854.19;4932008;29;20425;-66
2022/07/29 05:31:19;;;;;;;;;;;;;;;18.47;57.38;99848.97;4934169;28;19930;-67
2022/07/29 05:33:45;;;;;;;;;;;;;;;18.53;57.54;99854.00;4934349;29;19937;-68
2022/07/29 05:36:11;;;;;;;;;;;;;;;18.64;58.34;99857.25;4932811;29;19986;-67
2022/07/29 05:38:37;;;;;;;;;;;;;;;18.67;57.38;99850.25;4933649;29;19931;-65
2022/07/29 05:41:03;;;;;;;;;;;;;;;18.50;57.84;99845.56;4952741;29;19931;-65
2022/07/29 05:43:29;;;;;;;;;;;;;;;18.46;58.12;99847.34;4934891;29;20037;-65
2022/07/29 05:45:56;;;;;;;;;;;;;;;18.52;58.75;99855.13;4935296;29;19931;-67
2022/07/29 05:48:22;;;;;;;;;;;;;;;18.63;59.02;99850.06;4934605;29;20406;-65
2022/07/29 05:50:48;;;;;;;;;;;;;;;18.77;58.75;99855.44;4918342;29;19931;-65
2022/07/29 05:53:13;;;;;;;;;;;;;;;18.96;58.77;99857.03;4935447;29;19994;-66
2022/07/29 05:55:39;;;;;;;;;;;;;;;18.87;59.37;99854.28;4933208;29;20374;-65
2022/07/29 05:58:05;;;;;;;;;;;;;;;18.84;59.87;99857.72;4933635;29;20021;-68
2022/07/29 06:00:31;;;;;;;;;;;;;;;18.75;59.50;99857.72;4932249;29;20194;-67
2022/07/29 06:02:58;;;;;;;;;;;;;;;18.80;59.12;99856.72;4931162;29;19934;-67
2022/07/29 06:05:23;;;;;;;;;;;;;;;19.01;57.91;99845.78;4931173;29;20039;-67
2022/07/29 06:07:49;;;;;;;;;;;;;;;19.23;56.74;99852.25;4930503;29;20285;-66
2022/07/29 06:10:15;;;;;;;;;;;;;;;19.43;56.51;99853.44;4930385;29;19960;-67
2022/07/29 06:12:41;;;;;;;;;;;;;;;19.53;55.81;99847.53;4930995;28;19994;-66
2022/07/29 06:15:07;;;;;;;;;;;;;;;19.66;55.85;99856.75;4931872;29;20366;-67
2022/07/29 06:17:33;;;;;;;;;;;;;;;19.94;55.09;99852.72;4932114;29;19930;-65
2022/07/29 06:20:00;;;;;;;;;;;;;;;20.11;54.39;99851.75;4932101;29;20317;-65
2022/07/29 06:22:26;;;;;;;;;;;;;;;20.22;54.66;99849.41;4931673;29;20434;-66
2022/07/29 06:24:51;;;;;;;;;;;;;;;20.23;54.61;99848.25;4921546;29;19935;-66
2022/07/29 06:27:17;;;;;;;;;;;;;;;19.87;54.89;99849.59;4930183;29;20420;-65
2022/07/29 06:29:43;;;;;;;;;;;;;;;19.60;55.84;99846.19;4931726;29;19935;-66
2022/07/29 06:32:09;;;;;;;;;;;;;;;19.46;55.86;99852.78;4932243;29;19930;-65
2022/07/29 06:34:34;;;;;;;;;;;;;;;19.41;55.98;99841.88;4915297;29;19942;-66
2022/07/29 06:37:05;;;;;;;;;;;;;;;19.47;56.56;99850.81;4913241;29;19931;-64
2022/07/29 06:39:32;;;;;;;;;;;;;;;19.73;56.44;99844.31;4921350;29;19973;-65
2022/07/29 06:41:57;;;;;;;;;;;;;;;20.02;55.64;99837.94;4911678;29;19935;-64
2022/07/29 06:44:24;;;;;;;;;;;;;;;20.08;55.53;99836.59;4924922;29;19939;-66
2022/07/29 06:46:51;;;;;;;;;;;;;;;20.31;54.48;99829.91;4924553;29;19995;-65
2022/07/29 06:49:17;;;;;;;;;;;;;;;20.59;53.36;99834.84;4916686;29;19939;-65
2022/07/29 06:51:42;;;;;;;;;;;;;;;20.82;51.42;99838.06;4912357;29;19937;-65
2022/07/29 06:54:10;;;;;;;;;;;;;;;20.77;51.06;99841.88;4923763;29;19935;-65
2022/07/29 06:56:37;;;;;;;;;;;;;;;20.90;49.33;99841.91;4906422;29;19931;-66
2022/07/29 06:59:02;;;;;;;;;;;;;;;20.97;48.65;99839.38;4924557;29;21328;-65
2022/07/29 07:01:28;;;;;;;;;;;;;;;21.24;47.69;99848.22;4916583;29;19983;-67
2022/07/29 07:03:54;;;;;;;;;;;;;;;21.29;47.37;99844.38;4906104;29;19931;-67
2022/07/29 07:06:20;;;;;;;;;;;;;;;21.32;47.31;99843.72;4927936;29;19930;-66
2022/07/29 07:08:45;;;;;;;;;;;;;;;21.17;47.91;99839.63;4932252;29;19962;-68
2022/07/29 07:11:13;;;;;;;;;;;;;;;21.43;47.50;99844.06;4932028;29;19947;-68
2022/07/29 07:13:38;;;;;;;;;;;;;;;21.51;47.35;99851.47;4926858;29;19991;-67
2022/07/29 07:16:04;;;;;;;;;;;;;;;21.77;47.23;99844.75;4928317;29;20362;-67
2022/07/29 07:18:30;;;;;;;;;;;;;;;21.95;46.79;99850.88;4920465;29;20454;-65
2022/07/29 07:20:56;;;;;;;;;;;;;;;22.22;46.26;99848.47;4932147;29;20414;-66
2022/07/29 07:23:22;;;;;;;;;;;;;;;22.52;44.58;99840.63;4909768;29;19950;-66
2022/07/29 07:25:48;;;;;;;;;;;;;;;22.58;43.57;99843.97;4918555;29;19931;-67
2022/07/29 07:28:16;;;;;;;;;;;;;;;22.58;44.00;99848.72;4906583;29;19931;-66
2022/07/29 07:30:41;;;;;;;;;;;;;;;22.81;43.62;99860.09;4918341;29;19931;-65
2022/07/29 07:33:07;;;;;;;;;;;;;;;22.71;43.99;99855.03;4923571;29;19951;-66
2022/07/29 07:35:33;;;;;;;;;;;;;;;22.79;43.87;99848.50;4920389;29;19931;-67
2022/07/29 07:37:59;;;;;;;;;;;;;;;22.98;42.65;99858.16;4932182;29;20355;-67
2022/07/29 07:40:25;;;;;;;;;;;;;;;23.02;42.83;99850.69;4921103;29;19938;-66
2022/07/29 07:42:51;;;;;;;;;;;;;;;23.33;42.32;99857.47;4919342;29;20025;-67
2022/07/29 07:45:18;;;;;;;;;;;;;;;23.59;41.09;99842.97;4929273;29;20489;-67
2022/07/29 07:47:44;;;;;;;;;;;;;;;23.73;40.43;99861.22;4925643;29;19931;-64
2022/07/29 07:50:11;;;;;;;;;;;;;;;23.66;40.15;99856.28;4905480;29;20310;-67
2022/07/29 07:52:45;;;;;;;;;;;;;;;23.60;40.72;99852.13;4908905;29;19995;-67
2022/07/29 07:55:11;;;;;;;;;;;;;;;23.65;40.49;99849.09;4919409;29;20301;-67
2022/07/29 07:57:37;;;;;;;;;;;;;;;24.02;39.89;99857.13;4925595;29;19934;-65
2022/07/29 08:00:03;;;;;;;;;;;;;;;24.10;39.70;99846.91;4925355;29;19957;-66
2022/07/29 08:02:39;;;;;;;;;;;;;;;24.14;39.59;99858.16;4918947;29;19931;-67
2022/07/29 08:05:06;;;;;;;;;;;;;;;24.45;39.21;99867.59;4917464;29;19931;-67
2022/07/29 08:07:32;;;;;;;;;;;;;;;24.58;38.97;99859.84;4944747;28;19930;-66
2022/07/29 08:09:58;;;;;;;;;;;;;;;24.56;38.50;99867.81;4930112;29;19982;-67
2022/07/29 08:12:23;;;;;;;;;;;;;;;24.39;37.80;99875.47;4929523;29;20358;-67
2022/07/29 08:14:49;;;;;;;;;;;;;;;24.28;37.68;99869.66;4924139;29;19931;-68
2022/07/29 08:17:15;;;;;;;;;;;;;;;23.87;38.31;99858.75;4909187;29;19931;-67
2022/07/29 08:19:42;;;;;;;;;;;;;;;23.20;40.16;99865.91;4921638;29;19931;-67
2022/07/29 08:22:17;;;;;;;;;;;;;;;23.26;39.80;99872.06;4908501;29;20347;-65
2022/07/29 08:24:42;;;;;;;;;;;;;;;23.36;39.54;99865.94;4922982;29;20361;-66
2022/07/29 08:27:08;;;;;;;;;;;;;;;23.51;38.59;99866.28;4908546;29;19951;-67
2022/07/29 08:29:35;;;;;;;;;;;;;;;24.08;37.49;99860.44;4910126;29;19935;-67
2022/07/29 08:32:00;;;;;;;;;;;;;;;24.70;36.57;99862.50;4926549;29;19962;-68
2022/07/29 08:34:28;;;;;;;;;;;;;;;25.08;35.62;99859.19;4923159;29;20470;-66
2022/07/29 08:36:55;;;;;;;;;;;;;;;25.48;33.90;99855.13;4920416;29;19935;-66
2022/07/29 08:39:21;;;;;;;;;;;;;;;25.96;32.89;99857.41;4927760;29;20591;-67
2022/07/29 08:41:47;;;;;;;;;;;;;;;25.41;33.46;99852.97;4925848;29;19938;-68
2022/07/29 08:44:13;;;;;;;;;;;;;;;24.26;35.38;99854.44;4919215;29;19938;-65
2022/07/29 08:46:39;;;;;;;;;;;;;;;24.15;36.15;99852.19;4918751;29;19931;-66
2022/07/29 08:49:05;;;;;;;;;;;;;;;24.78;35.23;99838.31;4928241;29;20354;-66
2022/07/29 08:51:33;;;;;;;;;;;;;;;25.67;33.27;99845.78;4924654;29;19977;-66
2022/07/29 08:54:00;;;;;;;;;;;;;;;26.62;31.68;99847.84;4928438;29;19937;-67
2022/07/29 08:56:27;;;;;;;;;;;;;;;27.53;29.74;99845.91;4922627;29;19930;-66
2022/07/29 08:58:53;;;;;;;;;;;;;;;27.73;28.92;99846.44;4906594;29;19986;-65
2022/07/29 09:01:23;;;;;;;;;;;;;;;27.53;29.45;99852.34;4915176;29;19931;-66
2022/07/29 09:03:49;;;;;;;;;;;;;;;27.04;30.07;99849.50;4909500;29;19934;-67
2022/07/29 09:06:17;;;;;;;;;;;;;;;26.71;31.05;99851.16;4915355;29;19977;-67
2022/07/29 09:08:44;;;;;;;;;;;;;;;26.11;32.47;99849.19;4920568;29;19935;-66
2022/07/29 09:11:11;;;;;;;;;;;;;;;26.33;32.20;99847.50;4926516;29;19938;-66
2022/07/29 09:13:37;;;;;;;;;;;;;;;26.76;31.59;99849.97;4915459;29;19935;-66
2022/07/29 09:16:03;;;;;;;;;;;;;;;26.69;31.53;99847.13;4924120;28;20421;-67
2022/07/29 09:18:36;;;;;;;;;;;;;;;27.01;31.10;99846.66;4925839;29;19982;-68
2022/07/29 09:23:59;;;;;;;;;;;;;;;28.33;29.09;99843.56;4921004;29;19954;-66
2022/07/29 09:26:29;;;;;;;;;;;;;;;28.62;28.92;99843.66;4914341;29;19962;-66
2022/07/29 09:28:55;;;;;;;;;;;;;;;29.56;28.04;99846.59;4926556;29;19934;-66
2022/07/29 09:31:31;;;;;;;;;;;;;;;29.13;27.86;99847.38;4924202;29;19977;-66
2022/07/29 09:33:58;;;;;;;;;;;;;;;27.44;29.71;99854.63;4927949;29;20049;-66
2022/07/29 09:36:24;;;;;;;;;;;;;;;26.83;31.18;99841.66;4918693;29;20062;-66
2022/07/29 09:38:56;;;;;;;;;;;;;;;26.22;32.95;99852.97;4920062;29;20441;-65
2022/07/29 09:41:22;;;;;;;;;;;;;;;26.57;32.50;99845.41;4927231;29;20318;-65
2022/07/29 09:43:54;;;;;;;;;;;;;;;26.19;32.85;99850.94;4919167;29;19930;-65
2022/07/29 09:46:20;;;;;;;;;;;;;;;26.39;32.95;99843.19;4920787;29;20029;-65
2022/07/29 09:49:05;;;;;;;;;;;;;;;27.43;30.94;99853.84;4927393;29;20262;-66
2022/07/29 09:51:31;;;;;;;;;;;;;;;26.97;31.16;99843.81;4919266;29;19938;-66
2022/07/29 09:53:57;;;;;;;;;;;;;;;26.31;32.67;99856.31;4912793;29;19935;-65
2022/07/29 09:56:37;;;;;;;;;;;;;;;26.74;32.31;99867.22;4915946;29;20303;-66
2022/07/29 09:59:06;;;;;;;;;;;;;;;28.09;30.46;99852.25;4920682;29;19931;-66
2022/07/29 10:01:32;;;;;;;;;;;;;;;28.83;29.14;99868.25;4918080;29;19983;-66
2022/07/29 10:03:58;;;;;;;;;;;;;;;28.86;29.34;99864.63;4925814;29;19935;-66
2022/07/29 10:06:24;;;;;;;;;;;;;;;29.15;29.03;99857.03;4923248;29;20386;-67
2022/07/29 10:08:49;;;;;;;;;;;;;;;29.12;28.58;99851.41;4923996;29;19931;-66
2022/07/29 10:11:16;;;;;;;;;;;;;;;29.23;28.50;99857.03;4917634;29;20398;-66
2022/07/29 10:13:43;;;;;;;;;;;;;;;28.97;29.08;99853.41;4916887;29;20448;-67
2022/07/29 10:16:10;;;;;;;;;;;;;;;29.44;27.90;99850.63;4923816;29;20458;-66
2022/07/29 10:18:38;;;;;;;;;;;;;;;28.29;28.92;99846.38;4922923;29;19945;-66
2022/07/29 10:21:03;;;;;;;;;;;;;;;27.17;30.59;99854.84;4921851;29;19982;-67
2022/07/29 10:23:30;;;;;;;;;;;;;;;27.55;30.91;99863.97;4936099;29;20469;-66
2022/07/29 10:25:56;;;;;;;;;;;;;;;28.83;29.23;99855.00;4918800;29;20947;-66
2022/07/29 10:28:21;;;;;;;;;;;;;;;29.90;27.76;99848.13;4925592;29;19981;-66
2022/07/29 10:30:50;;;;;;;;;;;;;;;30.32;26.90;99854.06;4920937;29;19967;-66
2022/07/29 10:33:30;;;;;;;;;;;;;;;31.31;25.87;99838.97;4936842;29;20421;-68
2022/07/29 10:36:08;;;;;;;;;;;;;;;31.13;25.44;99847.53;4916817;29;19958;-67
2022/07/29 10:38:41;;;;;;;;;;;;;;;31.24;25.72;99841.84;4927846;29;20161;-67
2022/07/29 10:41:26;;;;;;;;;;;;;;;31.99;24.69;99842.31;4917717;29;19942;-65
2022/07/29 10:43:53;;;;;;;;;;;;;;;31.72;24.48;99843.00;4928275;29;19938;-66
2022/07/29 10:46:19;;;;;;;;;;;;;;;31.64;23.63;99850.75;4917412;29;19931;-65
2022/07/29 10:49:04;;;;;;;;;;;;;;;32.08;23.17;99833.34;4926824;29;20209;-65
2022/07/29 10:51:44;;;;;;;;;;;;;;;31.67;23.62;99841.44;4913615;29;20029;-66
2022/07/29 10:54:12;;;;;;;;;;;;;;;31.40;24.29;99861.06;4930907;29;19935;-65
2022/07/29 10:56:40;;;;;;;;;;;;;;;31.86;23.50;99852.59;4927947;29;19986;-66
2022/07/29 10:59:25;;;;;;;;;;;;;;;30.59;24.48;99857.13;4915561;29;19935;-66
2022/07/29 11:01:52;;;;;;;;;;;;;;;28.24;26.79;99852.34;4920038;29;19946;-67
2022/07/29 11:04:45;;;;;;;;;;;;;;;26.93;29.26;99854.19;4913670;29;19935;-67
2022/07/29 11:07:12;;;;;;;;;;;;;;;27.79;28.25;99847.69;4922994;29;19938;-68
2022/07/29 11:09:39;;;;;;;;;;;;;;;28.83;26.92;99857.00;4921389;29;19950;-68
2022/07/29 11:12:27;;;;;;;;;;;;;;;29.60;26.09;99853.03;4907636;29;19970;-67
2022/07/29 11:14:58;;;;;;;;;;;;;;;28.41;27.37;99853.63;4920971;29;20442;-67
2022/07/29 11:17:24;;;;;;;;;;;;;;;27.25;29.51;99844.47;4927521;29;19931;-67
2022/07/29 11:19:50;;;;;;;;;;;;;;;26.41;30.88;99868.84;4918734;29;20323;-67
2022/07/29 11:22:31;;;;;;;;;;;;;;;26.29;31.05;99853.06;4915873;29;20033;-67
2022/07/29 11:25:12;;;;;;;;;;;;;;;26.20;31.24;99855.38;4917118;29;19950;-67
2022/07/29 11:27:39;;;;;;;;;;;;;;;25.57;32.01;99858.44;4909218;29;19931;-66
2022/07/29 11:30:05;;;;;;;;;;;;;;;25.04;32.87;99862.75;4914242;29;19930;-65
2022/07/29 11:32:36;;;;;;;;;;;;;;;25.25;33.03;99857.91;4927630;29;20025;-65
2022/07/29 11:35:12;;;;;;;;;;;;;;;27.83;29.56;99858.94;4920597;29;19970;-65
2022/07/29 11:37:38;;;;;;;;;;;;;;;29.92;26.52;99865.44;4922426;29;20368;-69
2022/07/29 11:40:14;;;;;;;;;;;;;;;31.15;24.48;99852.78;4927650;29;20029;-64
2022/07/29 11:42:43;;;;;;;;;;;;;;;31.35;24.55;99855.84;4923215;29;19980;-66
2022/07/29 11:45:10;;;;;;;;;;;;;;;32.02;23.26;99846.34;4920843;29;19966;-66
2022/07/29 11:47:37;;;;;;;;;;;;;;;30.74;23.58;99865.53;4915528;29;19919;-66
2022/07/29 11:50:05;;;;;;;;;;;;;;;28.72;26.21;99869.00;4923776;29;19931;-66
2022/07/29 11:52:32;;;;;;;;;;;;;;;28.65;26.48;99854.13;4915027;29;20021;-66
2022/07/29 11:55:01;;;;;;;;;;;;;;;29.21;26.44;99862.25;4912471;29;19934;-64
2022/07/29 11:57:29;;;;;;;;;;;;;;;30.45;25.34;99857.22;4913093;29;19937;-66
2022/07/29 11:59:57;;;;;;;;;;;;;;;31.81;23.59;99859.50;4915294;29;19930;-66
2022/07/29 12:02:23;;;;;;;;;;;;;;;32.52;22.70;99868.34;4923993;29;19986;-66
2022/07/29 12:04:49;;;;;;;;;;;;;;;31.00;23.88;99858.53;4913501;29;19931;-66
2022/07/29 12:07:15;;;;;;;;;;;;;;;29.84;25.56;99853.38;4918179;29;19931;-66
2022/07/29 12:09:49;;;;;;;;;;;;;;;29.29;26.41;99838.56;4925593;28;19931;-66
2022/07/29 12:12:15;;;;;;;;;;;;;;;30.79;24.70;99845.38;4924212;29;19931;-66
2022/07/29 12:14:45;;;;;;;;;;;;;;;32.23;23.31;99842.44;4912147;29;19941;-67
2022/07/29 12:17:24;;;;;;;;;;;;;;;33.32;21.90;99849.41;4909808;29;19994;-66
2022/07/29 12:19:50;;;;;;;;;;;;;;;34.46;20.83;99836.28;4918527;29;19938;-66
2022/07/29 12:22:24;;;;;;;;;;;;;;;34.23;20.70;99846.50;4907436;29;19931;-66
2022/07/29 12:24:49;;;;;;;;;;;;;;;34.71;19.95;99840.63;4908654;29;19931;-66
2022/07/29 12:27:17;;;;;;;;;;;;;;;34.46;20.48;99841.97;4908979;29;19963;-65
2022/07/29 12:29:42;;;;;;;;;;;;;;;33.35;21.78;99842.88;4912556;29;19931;-66
2022/07/29 12:32:08;;;;;;;;;;;;;;;31.69;23.87;99833.34;4928454;29;20037;-65
2022/07/29 12:34:35;;;;;;;;;;;;;;;32.95;22.40;99837.84;4926894;29;19963;-65
2022/07/29 12:37:02;;;;;;;;;;;;;;;34.30;21.14;99833.41;4926054;29;19937;-67
2022/07/29 12:39:27;;;;;;;;;;;;;;;34.63;20.44;99845.66;4929081;29;19931;-66
2022/07/29 12:41:53;;;;;;;;;;;;;;;32.41;22.29;99842.25;4927594;29;19937;-68
2022/07/29 12:44:19;;;;;;;;;;;;;;;29.81;25.33;99843.72;4924004;29;19931;-69
2022/07/29 12:46:48;;;;;;;;;;;;;;;28.27;27.58;99838.31;4919243;29;20057;-65
2022/07/29 12:49:21;;;;;;;;;;;;;;;27.34;29.48;99838.53;4928924;29;19937;-65
2022/07/29 12:51:48;;;;;;;;;;;;;;;26.63;30.78;99843.84;4912918;29;19931;-66
2022/07/29 12:54:15;;;;;;;;;;;;;;;26.30;31.03;99845.47;4905714;29;19935;-65